Time;durP1;ratioP1;P1;durP2;ratioP2;P2;SDS_P1;SDS_P2;PMS_P1;PMS_P2;Temp;Humidity;BMP_temperature;BMP_pressure;BME280_temperature;BME280_humidity;BME280_pressure;Samples;Min_cycle;Max_cycle;Signal;HPM_P1;HPM_P2
2022/04/17 00:00:53;;;;;;;37.40;33.40;;;;;;;1.70;64.14;99034.80;107827;1290;22561;-85
2022/04/17 00:03:24;;;;;;;37.40;33.60;;;;;;;1.68;64.08;99030.97;107858;1291;22330;-85
2022/04/17 00:05:52;;;;;;;34.00;30.50;;;;;;;1.71;63.96;99031.59;107825;1290;22284;-86
2022/04/17 00:08:20;;;;;;;32.00;28.70;;;;;;;1.73;64.10;99034.31;107845;1290;22212;-88
2022/04/17 00:10:48;;;;;;;35.30;31.40;;;;;;;1.71;64.56;99029.35;107818;1290;22399;-86
2022/04/17 00:13:16;;;;;;;35.40;31.70;;;;;;;1.69;64.54;99031.85;107839;1291;22326;-86
2022/04/17 00:15:44;;;;;;;34.00;30.60;;;;;;;1.68;64.91;99029.09;108002;1291;22576;-82
2022/04/17 00:18:12;;;;;;;33.90;30.50;;;;;;;1.65;64.58;99027.78;107666;1291;23240;-87
2022/04/17 00:20:40;;;;;;;32.60;29.10;;;;;;;1.62;65.01;99030.16;107960;1291;22412;-82
2022/04/17 00:23:08;;;;;;;32.90;29.40;;;;;;;1.58;65.29;99028.15;107884;1291;22258;-88
2022/04/17 00:25:36;;;;;;;33.40;30.00;;;;;;;1.52;65.48;99026.62;107628;1290;22369;-86
2022/04/17 00:28:05;;;;;;;31.80;28.20;;;;;;;1.49;65.01;99027.58;107875;1288;22495;-86
2022/04/17 00:30:32;;;;;;;41.90;37.60;;;;;;;1.46;65.25;99032.05;107967;1290;187781;-88
2022/04/17 00:33:00;;;;;;;31.00;27.90;;;;;;;1.41;65.60;99026.60;108238;1290;22377;-82
2022/04/17 00:35:28;;;;;;;32.60;28.80;;;;;;;1.40;65.79;99028.73;108259;1291;22175;-87
2022/04/17 00:37:57;;;;;;;32.90;29.50;;;;;;;1.45;65.51;99028.39;108042;1291;22361;-86
2022/04/17 00:40:24;;;;;;;31.70;28.50;;;;;;;1.46;66.16;99025.15;107876;1290;22327;-87
2022/04/17 00:42:53;;;;;;;33.30;29.80;;;;;;;1.47;65.66;99022.29;108044;1290;22731;-88
2022/04/17 00:45:21;;;;;;;34.10;30.60;;;;;;;1.46;65.55;99025.19;108042;1291;22461;-87
2022/04/17 00:47:49;;;;;;;34.90;31.50;;;;;;;1.42;66.15;99018.80;107972;1291;22240;-86
2022/04/17 00:50:18;;;;;;;36.20;32.40;;;;;;;1.37;66.30;99024.25;108038;1291;22289;-87
2022/04/17 00:52:46;;;;;;;36.80;33.10;;;;;;;1.31;65.74;99021.70;107961;1290;22584;-86
2022/04/17 00:55:15;;;;;;;31.70;28.50;;;;;;;1.27;66.22;99020.90;107909;1291;22233;-86
2022/04/17 00:57:43;;;;;;;35.20;31.60;;;;;;;1.26;65.85;99021.96;107728;1291;22341;-89
2022/04/17 01:00:12;;;;;;;33.20;29.60;;;;;;;1.24;66.12;99020.84;107975;1290;22192;-86
2022/04/17 01:02:39;;;;;;;32.10;28.90;;;;;;;1.21;66.64;99017.50;107994;1291;22411;-89
2022/04/17 01:05:08;;;;;;;33.90;30.50;;;;;;;1.19;66.47;99020.36;107942;1290;22329;-89
2022/04/17 01:07:37;;;;;;;32.70;29.50;;;;;;;1.18;66.51;99015.34;107936;1291;22402;-86
2022/04/17 01:10:07;;;;;;;32.00;28.90;;;;;;;1.15;66.78;99010.86;107617;1291;22375;-86
2022/04/17 01:12:36;;;;;;;31.50;28.40;;;;;;;1.12;66.53;99006.71;107822;1290;22516;-87
2022/04/17 01:15:05;;;;;;;31.40;28.00;;;;;;;1.09;66.40;99003.33;107855;1290;22532;-86
2022/04/17 01:17:33;;;;;;;29.60;26.60;;;;;;;1.08;66.79;99005.41;107815;1290;22328;-86
2022/04/17 01:20:01;;;;;;;28.20;25.30;;;;;;;1.09;66.68;99004.92;107837;1290;23088;-86
2022/04/17 01:22:28;;;;;;;26.80;24.10;;;;;;;1.08;66.36;99004.52;107840;1290;22356;-87
2022/04/17 01:27:42;;;;;;;26.80;23.90;;;;;;;1.02;67.02;99000.00;107817;1290;22416;-88
2022/04/17 01:30:10;;;;;;;24.70;22.30;;;;;;;1.00;66.99;98998.95;107860;1290;22423;-85
2022/04/17 01:32:38;;;;;;;29.10;26.00;;;;;;;0.98;67.09;98994.79;107663;1291;22410;-88
2022/04/17 01:35:06;;;;;;;24.70;22.10;;;;;;;0.95;66.99;98992.19;107872;1291;22276;-86
2022/04/17 01:37:34;;;;;;;25.60;22.80;;;;;;;0.93;67.03;98988.27;108028;1289;22362;-94
2022/04/17 01:40:02;;;;;;;26.30;20.50;;;;;;;0.93;66.94;98990.11;107949;1291;22358;-87
2022/04/17 01:42:30;;;;;;;24.30;21.90;;;;;;;0.96;66.87;98989.61;107838;1290;22398;-81
2022/04/17 01:44:58;;;;;;;22.70;20.30;;;;;;;0.96;67.50;98984.39;107574;1290;22331;-78
2022/04/17 01:47:25;;;;;;;28.60;25.60;;;;;;;1.16;70.57;98984.71;107839;1291;23201;-84
2022/04/17 01:49:53;;;;;;;27.30;24.80;;;;;;;1.39;68.42;98988.87;107846;1291;22386;-85
2022/04/17 01:52:21;;;;;;;26.80;24.20;;;;;;;1.37;67.50;98992.42;107855;1290;22483;-88
2022/04/17 01:54:49;;;;;;;26.10;23.60;;;;;;;1.31;67.40;98988.08;107560;1291;22493;-88
2022/04/17 01:57:17;;;;;;;29.20;26.50;;;;;;;1.22;67.44;98985.05;107849;1290;22265;-87
2022/04/17 01:59:45;;;;;;;29.00;26.40;;;;;;;1.18;67.54;98990.39;107845;1290;22699;-86
2022/04/17 02:02:13;;;;;;;28.60;25.80;;;;;;;1.12;67.24;98989.52;107844;1290;23231;-88
2022/04/17 02:04:41;;;;;;;29.20;26.30;;;;;;;1.10;67.23;98985.94;107813;1290;23078;-86
2022/04/17 02:07:09;;;;;;;27.10;24.50;;;;;;;1.11;67.10;98987.55;107840;1291;22280;-86
2022/04/17 02:09:37;;;;;;;25.20;22.80;;;;;;;1.11;67.10;98990.09;107826;1290;22380;-82
2022/04/17 02:12:05;;;;;;;27.50;25.10;;;;;;;1.09;67.09;98987.77;107800;1290;22359;-82
2022/04/17 02:14:33;;;;;;;29.70;26.50;;;;;;;1.06;66.96;98986.27;107857;1290;22284;-83
2022/04/17 02:17:01;;;;;;;25.40;22.90;;;;;;;1.04;67.10;98984.03;107843;1290;22379;-84
2022/04/17 02:19:28;;;;;;;25.00;22.60;;;;;;;1.00;66.93;98984.38;107826;1290;23052;-85
2022/04/17 02:21:56;;;;;;;26.60;24.20;;;;;;;0.95;67.02;98983.05;107830;1291;22263;-84
2022/04/17 02:24:24;;;;;;;25.20;22.80;;;;;;;0.89;67.03;98980.45;107824;1290;22432;-86
2022/04/17 02:26:52;;;;;;;26.10;23.50;;;;;;;0.84;66.94;98979.70;107806;1291;22235;-85
2022/04/17 02:29:20;;;;;;;26.30;23.80;;;;;;;0.78;66.83;98978.08;107849;1291;22554;-84
2022/04/17 02:31:47;;;;;;;24.30;21.80;;;;;;;0.72;66.93;98977.40;107845;1291;22467;-85
2022/04/17 02:34:15;;;;;;;24.90;22.40;;;;;;;0.70;67.00;98980.21;107839;1290;22296;-85
2022/04/17 02:36:44;;;;;;;25.90;23.20;;;;;;;0.70;67.04;98979.35;107875;1291;22410;-84
2022/04/17 02:39:11;;;;;;;23.50;21.20;;;;;;;0.70;67.07;98982.83;107860;1290;22361;-84
2022/04/17 02:41:39;;;;;;;20.90;18.80;;;;;;;0.69;67.24;98976.95;107849;1290;22417;-83
2022/04/17 02:44:07;;;;;;;24.70;22.40;;;;;;;0.68;67.36;98975.16;107859;1291;22348;-83
2022/04/17 02:49:21;;;;;;;22.40;20.30;;;;;;;0.68;67.30;98975.66;107872;1290;23050;-81
2022/04/17 02:51:49;;;;;;;23.50;21.30;;;;;;;0.67;67.41;98971.24;107868;1290;22353;-83
2022/04/17 02:54:17;;;;;;;23.40;21.10;;;;;;;0.65;67.47;98976.23;107877;1290;22298;-83
2022/04/17 02:56:46;;;;;;;32.20;29.40;;;;;;;0.63;67.40;98970.66;107875;1290;22406;-82
2022/04/17 02:59:13;;;;;;;21.50;19.40;;;;;;;0.61;67.54;98973.07;107875;1290;23148;-82
2022/04/17 03:07:14;;;;;;;21.30;19.20;;;;;;;0.63;67.92;98974.29;107878;1290;22637;-83
2022/04/17 03:09:42;;;;;;;23.10;20.60;;;;;;;0.63;67.90;98973.67;107881;1290;23175;-81
2022/04/17 03:12:10;;;;;;;22.90;20.70;;;;;;;0.62;67.91;98974.52;107879;1291;22351;-82
2022/04/17 03:14:38;;;;;;;23.70;21.50;;;;;;;0.60;67.89;98973.59;107894;1290;22399;-84
2022/04/17 03:17:06;;;;;;;23.00;20.90;;;;;;;0.58;67.99;98973.20;107613;1291;22454;-83
2022/04/17 03:19:34;;;;;;;22.60;20.10;;;;;;;0.56;68.14;98974.50;107876;1290;23169;-83
2022/04/17 03:22:02;;;;;;;22.70;20.50;;;;;;;0.59;68.20;98977.77;107868;1290;22252;-83
2022/04/17 03:24:31;;;;;;;21.80;19.90;;;;;;;0.63;68.09;98975.71;107908;1291;22442;-82
2022/04/17 03:26:59;;;;;;;22.90;20.70;;;;;;;0.63;68.44;98978.27;107875;1290;22394;-82
2022/04/17 03:29:27;;;;;;;24.60;21.90;;;;;;;0.62;68.18;98978.13;107890;1291;23277;-83
2022/04/17 03:31:55;;;;;;;25.50;23.00;;;;;;;0.60;68.31;98979.39;107893;1289;22254;-81
2022/04/17 03:34:23;;;;;;;23.00;20.80;;;;;;;0.58;68.28;98978.95;107633;1291;22288;-83
2022/04/17 03:36:50;;;;;;;24.50;22.30;;;;;;;0.55;68.36;98976.99;107904;1291;22490;-91
2022/04/17 03:39:18;;;;;;;22.40;20.30;;;;;;;0.52;68.46;98977.86;107907;1290;22517;-88
2022/04/17 03:41:47;;;;;;;21.60;19.40;;;;;;;0.49;68.51;98980.72;107884;1290;22255;-89
2022/04/17 03:44:15;;;;;;;23.40;21.00;;;;;;;0.50;68.44;98980.14;107888;1291;23136;-87
2022/04/17 03:46:43;;;;;;;21.00;19.00;;;;;;;0.51;68.32;98981.52;107894;1290;22423;-88
2022/04/17 03:49:11;;;;;;;21.30;19.30;;;;;;;0.52;68.67;98983.03;107882;1290;22296;-88
2022/04/17 03:51:39;;;;;;;23.80;21.50;;;;;;;0.50;68.78;98979.54;107576;1291;22511;-88
2022/04/17 03:54:07;;;;;;;22.50;20.10;;;;;;;0.47;68.66;98983.86;107931;1291;22401;-89
2022/04/17 03:56:35;;;;;;;45.50;35.40;;;;;;;0.42;68.89;98983.83;107890;1290;23003;-88
2022/04/17 03:59:03;;;;;;;52.40;46.10;;;;;;;0.39;69.18;98981.77;107897;1291;22462;-89
2022/04/17 04:01:31;;;;;;;50.20;41.00;;;;;;;0.37;68.75;98982.90;107915;1290;22405;-89
2022/04/17 04:03:59;;;;;;;56.90;43.50;;;;;;;0.36;68.81;98981.50;107870;1291;22456;-81
2022/04/17 04:06:27;;;;;;;33.50;29.30;;;;;;;0.40;69.11;98981.67;107922;1291;22924;-90
2022/04/17 04:08:54;;;;;;;31.70;28.40;;;;;;;0.41;69.10;98982.98;107927;1290;22329;-88
2022/04/17 04:11:22;;;;;;;31.00;27.90;;;;;;;0.42;69.17;98979.88;108024;1290;22563;-88
2022/04/17 04:13:50;;;;;;;24.60;21.60;;;;;;;0.42;69.04;98981.26;108214;1291;22239;-86
2022/04/17 04:16:18;;;;;;;29.30;26.50;;;;;;;0.41;69.22;98978.23;108260;1290;22385;-88
2022/04/17 04:18:46;;;;;;;30.40;27.30;;;;;;;0.40;69.04;98980.83;108261;1290;22275;-89
2022/04/17 04:21:14;;;;;;;34.80;31.00;;;;;;;0.37;68.96;98981.92;108174;1291;22307;-89
2022/04/17 04:23:41;;;;;;;32.50;28.90;;;;;;;0.36;69.02;98983.52;107985;1291;22271;-89
2022/04/17 04:26:09;;;;;;;38.20;28.10;;;;;;;0.40;68.97;98983.16;108001;1290;22412;-89
2022/04/17 04:28:37;;;;;;;46.90;33.80;;;;;;;0.44;68.95;98983.71;108000;1291;22385;-89
2022/04/17 04:31:07;;;;;;;30.60;24.10;;;;;;;0.48;68.75;98983.05;107686;1291;22319;-85
2022/04/17 04:33:37;;;;;;;31.40;23.90;;;;;;;0.50;68.85;98981.86;107986;1291;22265;-87
2022/04/17 04:36:06;;;;;;;39.70;31.10;;;;;;;0.51;69.11;98979.20;108186;1291;23033;-88
2022/04/17 04:38:34;;;;;;;41.20;33.40;;;;;;;0.54;68.98;98982.51;107977;1290;22508;-86
2022/04/17 04:41:03;;;;;;;38.70;34.30;;;;;;;0.56;69.28;98980.87;107883;1290;22355;-87
2022/04/17 04:43:31;;;;;;;34.30;30.60;;;;;;;0.60;69.06;98980.65;107583;1291;22918;-86
2022/04/17 04:46:08;;;;;;;31.60;28.00;;;;;;;0.64;69.03;98983.46;107941;1290;22532;-85
2022/04/17 04:51:26;;;;;;;31.10;27.50;;;;;;;0.74;68.90;98984.42;107883;1291;22298;-86
2022/04/17 04:53:57;;;;;;;25.50;23.10;;;;;;;0.78;68.67;98989.02;107889;1291;23006;-85
2022/04/17 04:56:25;;;;;;;26.60;23.90;;;;;;;0.82;68.86;98987.05;107915;1290;22181;-85
2022/04/17 04:58:53;;;;;;;22.00;19.80;;;;;;;0.89;68.96;98980.25;107578;1291;22405;-87
2022/04/17 05:01:21;;;;;;;23.60;21.30;;;;;;;0.97;69.11;98984.79;107893;1290;22267;-86
2022/04/17 05:03:49;;;;;;;22.30;20.20;;;;;;;1.01;68.78;98982.01;107886;1290;22392;-88
2022/04/17 05:06:17;;;;;;;23.80;21.40;;;;;;;1.03;69.02;98984.16;107891;1290;22361;-88
2022/04/17 05:08:45;;;;;;;25.50;23.10;;;;;;;1.09;69.06;98985.69;107903;1290;22528;-87
2022/04/17 05:11:14;;;;;;;23.00;20.80;;;;;;;1.14;69.11;98985.50;107909;1291;23060;-86
2022/04/17 05:13:43;;;;;;;23.80;21.30;;;;;;;1.20;69.24;98987.31;107884;1291;22892;-86
2022/04/17 05:16:12;;;;;;;19.80;18.00;;;;;;;1.27;68.96;98987.23;107552;1291;23368;-86
2022/04/17 05:18:41;;;;;;;17.80;16.00;;;;;;;1.38;69.27;98988.79;107897;1290;22319;-85
2022/04/17 05:21:08;;;;;;;17.90;16.20;;;;;;;1.52;69.13;98992.66;107581;1291;22382;-84
2022/04/17 05:23:37;;;;;;;24.10;21.70;;;;;;;1.68;69.19;98990.83;107875;1289;22283;-86
2022/04/17 05:26:05;;;;;;;19.40;17.60;;;;;;;1.83;69.31;98990.85;107898;1290;22392;-84
2022/04/17 05:28:33;;;;;;;17.20;15.50;;;;;;;1.99;69.36;98984.55;107890;1290;22587;-87
2022/04/17 05:31:01;;;;;;;22.10;19.80;;;;;;;2.12;69.49;98987.02;107921;1291;23203;-86
2022/04/17 05:33:29;;;;;;;21.50;19.40;;;;;;;2.23;69.32;98984.97;107955;1290;22458;-86
2022/04/17 05:35:57;;;;;;;23.60;21.20;;;;;;;2.33;69.02;98995.24;107943;1290;22478;-88
2022/04/17 05:38:25;;;;;;;28.40;25.40;;;;;;;2.38;69.08;98993.80;107636;1291;22865;-86
2022/04/17 05:40:54;;;;;;;24.30;22.00;;;;;;;2.45;69.28;98990.46;107925;1291;22251;-87
2022/04/17 05:43:22;;;;;;;24.80;22.60;;;;;;;2.57;69.32;98996.45;107942;1290;22628;-86
2022/04/17 05:45:50;;;;;;;24.30;21.60;;;;;;;2.67;69.11;98991.96;107902;1291;22852;-86
2022/04/17 05:48:18;;;;;;;20.60;18.40;;;;;;;2.77;69.02;98991.09;107678;1291;22399;-89
2022/04/17 05:50:46;;;;;;;20.10;18.20;;;;;;;2.89;69.03;98989.36;107895;1291;22314;-89
2022/04/17 05:53:14;;;;;;;23.00;20.70;;;;;;;3.05;69.05;98990.81;107907;1291;22628;-87
2022/04/17 05:55:42;;;;;;;22.90;20.50;;;;;;;3.20;69.01;98993.95;107886;1290;22303;-87
2022/04/17 05:58:10;;;;;;;24.90;22.50;;;;;;;3.35;68.98;98991.21;107875;1290;22369;-86
2022/04/17 06:00:42;;;;;;;19.40;17.50;;;;;;;3.53;69.02;98988.08;107886;1291;22355;-87
2022/04/17 06:03:10;;;;;;;19.10;17.10;;;;;;;3.69;68.79;98987.48;108243;1290;22485;-83
2022/04/17 06:05:38;;;;;;;16.50;14.90;;;;;;;3.80;68.72;98982.25;108342;1291;22454;-82
2022/04/17 06:08:06;;;;;;;16.50;14.90;;;;;;;3.92;68.60;98985.84;108330;1290;22276;-83
2022/04/17 06:10:34;;;;;;;15.90;14.30;;;;;;;4.03;68.47;98988.16;108063;1291;22333;-87
2022/04/17 06:13:02;;;;;;;15.70;14.10;;;;;;;4.16;68.54;98983.48;108114;1290;22343;-88
2022/04/17 06:15:30;;;;;;;14.30;12.80;;;;;;;4.28;68.45;98981.55;108065;1291;22416;-88
2022/04/17 06:17:58;;;;;;;13.30;11.90;;;;;;;4.43;68.41;98990.02;108032;1291;22349;-87
2022/04/17 06:20:26;;;;;;;15.90;14.20;;;;;;;4.57;68.32;98988.08;107931;1290;22381;-87
2022/04/17 06:22:54;;;;;;;11.90;10.70;;;;;;;4.70;68.11;98988.05;107893;1290;22268;-86
2022/04/17 06:25:21;;;;;;;12.60;11.40;;;;;;;4.81;67.65;98991.43;107888;1291;23155;-87
2022/04/17 06:27:49;;;;;;;11.50;9.90;;;;;;;4.91;67.28;98985.35;107870;1290;22516;-88
2022/04/17 06:30:19;;;;;;;16.40;12.80;;;;;;;4.96;66.44;98989.23;107895;1291;22385;-86
2022/04/17 06:32:49;;;;;;;10.50;9.40;;;;;;;4.99;66.39;98991.60;107893;1291;22379;-87
2022/04/17 06:35:17;;;;;;;9.40;8.50;;;;;;;4.99;64.82;98991.24;107953;1291;22263;-87
2022/04/17 06:37:58;;;;;;;9.50;8.50;;;;;;;5.06;65.52;98996.52;107914;1291;22316;-85
2022/04/17 06:40:36;;;;;;;9.70;8.80;;;;;;;5.14;65.16;98995.81;107878;1290;22394;-87
2022/04/17 06:43:07;;;;;;;10.20;8.50;;;;;;;5.15;63.93;98997.55;107885;1290;22277;-88
2022/04/17 06:45:37;;;;;;;11.70;10.50;;;;;;;5.12;61.98;99001.64;107891;1290;22393;-86
2022/04/17 06:48:16;;;;;;;10.90;9.80;;;;;;;5.07;63.29;98992.09;107893;1291;22294;-83
2022/04/17 06:50:45;;;;;;;11.40;10.20;;;;;;;5.10;63.68;98993.23;107902;1290;22922;-85
2022/04/17 06:53:14;;;;;;;11.20;9.20;;;;;;;5.19;62.71;98994.31;107856;1291;22348;-87
2022/04/17 06:55:44;;;;;;;10.50;9.40;;;;;;;5.28;62.54;98992.73;107902;1290;22357;-87
2022/04/17 06:58:12;;;;;;;9.40;8.40;;;;;;;5.38;60.72;98995.32;107880;1291;23035;-87
2022/04/17 07:00:40;;;;;;;9.90;8.80;;;;;;;5.42;61.32;98989.58;107873;1289;22439;-84
2022/04/17 07:03:08;;;;;;;8.70;7.80;;;;;;;5.50;61.82;98986.57;107893;1290;22247;-87
2022/04/17 07:05:36;;;;;;;9.40;8.40;;;;;;;5.59;60.27;98992.55;107875;1290;22396;-86
2022/04/17 07:08:06;;;;;;;8.40;7.60;;;;;;;5.66;59.53;98989.33;107883;1291;22370;-87
2022/04/17 07:10:37;;;;;;;7.20;6.40;;;;;;;5.78;60.61;98994.24;107888;1291;22419;-86
2022/04/17 07:13:07;;;;;;;8.20;6.80;;;;;;;5.90;60.15;98990.83;107576;1291;22403;-87
2022/04/17 07:15:35;;;;;;;7.00;6.00;;;;;;;6.03;60.05;98990.96;107914;1291;23043;-89
2022/04/17 07:18:03;;;;;;;7.10;6.40;;;;;;;6.10;59.88;98993.86;107910;1290;22329;-88
2022/04/17 07:20:32;;;;;;;6.40;5.30;;;;;;;6.20;59.34;98993.75;107909;1291;22236;-87
2022/04/17 07:23:00;;;;;;;13.00;11.80;;;;;;;6.29;59.65;98991.11;107907;1291;23158;-89
2022/04/17 07:25:28;;;;;;;6.40;5.70;;;;;;;6.38;59.31;98990.34;107877;1290;23278;-89
2022/04/17 07:27:56;;;;;;;6.40;5.00;;;;;;;6.43;57.53;98991.74;107854;1291;22291;-86
2022/04/17 07:30:26;;;;;;;7.20;5.50;;;;;;;6.47;57.69;98989.36;107883;1291;22277;-87
2022/04/17 07:32:57;;;;;;;6.00;5.00;;;;;;;6.54;58.56;98991.87;107896;1291;22303;-88
2022/04/17 07:35:26;;;;;;;6.80;5.60;;;;;;;6.64;58.87;98994.27;107890;1291;22375;-88
2022/04/17 07:38:02;;;;;;;6.80;5.70;;;;;;;6.70;58.58;98989.32;107895;1291;22403;-88
2022/04/17 07:40:32;;;;;;;5.10;4.60;;;;;;;6.72;58.04;98990.89;107887;1291;22458;-89
2022/04/17 07:43:04;;;;;;;5.20;4.70;;;;;;;6.67;57.01;98989.17;107968;1290;22293;-89
2022/04/17 07:45:33;;;;;;;5.80;4.80;;;;;;;6.68;55.36;98993.41;107616;1291;22461;-88
2022/04/17 07:48:01;;;;;;;5.50;4.90;;;;;;;6.54;53.22;98992.83;107885;1290;22424;-89
2022/04/17 07:50:31;;;;;;;5.10;4.20;;;;;;;6.35;52.72;98992.83;107938;1291;22526;-89
2022/04/17 07:53:00;;;;;;;5.30;4.80;;;;;;;6.25;52.30;98995.50;107908;1291;22381;-90
2022/04/17 07:55:28;;;;;;;7.60;4.90;;;;;;;6.11;48.03;98996.13;107907;1291;22419;-90
2022/04/17 07:58:03;;;;;;;6.60;6.00;;;;;;;6.06;50.95;98990.73;107876;1291;22930;-90
2022/04/17 08:00:45;;;;;;;5.30;4.80;;;;;;;6.06;52.66;98987.75;107907;1291;22384;-87
2022/04/17 08:03:24;;;;;;;6.00;5.40;;;;;;;6.09;52.17;98987.22;107891;1291;23232;-89
2022/04/17 08:05:52;;;;;;;5.60;4.50;;;;;;;6.16;53.15;98982.92;107906;1291;22394;-89
2022/04/17 08:08:20;;;;;;;5.60;5.00;;;;;;;6.23;52.77;98982.68;107907;1291;22309;-89
2022/04/17 08:10:48;;;;;;;5.50;4.10;;;;;;;6.39;52.57;98974.42;107908;1291;22854;-84
2022/04/17 08:13:16;;;;;;;5.30;4.20;;;;;;;6.60;51.27;98974.28;107952;1291;22401;-88
2022/04/17 08:15:44;;;;;;;4.50;4.10;;;;;;;6.68;50.60;98971.19;107924;1291;22449;-86
2022/04/17 08:18:13;;;;;;;6.10;4.20;;;;;;;6.72;48.07;98979.33;107907;1291;22397;-87
2022/04/17 08:20:40;;;;;;;4.40;3.80;;;;;;;6.75;50.15;98978.40;107903;1290;22383;-85
2022/04/17 08:23:08;;;;;;;9.10;8.00;;;;;;;6.92;51.19;98976.11;107896;1291;22378;-86
2022/04/17 08:25:37;;;;;;;5.60;5.00;;;;;;;7.10;49.48;98973.99;107892;1290;23053;-87
2022/04/17 08:28:05;;;;;;;4.90;4.10;;;;;;;7.18;48.54;98974.02;107902;1291;23266;-87
2022/04/17 08:30:34;;;;;;;4.80;4.30;;;;;;;7.15;47.27;98971.80;107874;1291;22346;-88
2022/04/17 08:33:04;;;;;;;5.00;4.50;;;;;;;7.21;49.01;98969.65;107834;1291;22282;-87
2022/04/17 08:35:32;;;;;;;4.90;4.20;;;;;;;7.40;49.30;98966.23;107870;1291;22254;-87
2022/04/17 08:38:04;;;;;;;4.80;4.30;;;;;;;7.53;46.16;98968.08;107852;1291;23034;-88
2022/04/17 08:40:33;;;;;;;5.00;4.30;;;;;;;7.42;46.64;98965.98;107573;1291;23041;-85
2022/04/17 08:43:01;;;;;;;5.50;4.40;;;;;;;7.35;47.20;98966.39;107896;1291;23068;-86
2022/04/17 08:45:29;;;;;;;5.20;4.40;;;;;;;7.42;49.09;98964.44;107858;1291;22427;-87
2022/04/17 08:47:57;;;;;;;5.00;4.50;;;;;;;7.60;49.59;98960.91;107885;1291;22636;-89
2022/04/17 08:50:25;;;;;;;5.10;3.40;;;;;;;7.78;49.43;98954.02;107835;1291;22174;-88
2022/04/17 08:52:53;;;;;;;4.60;4.10;;;;;;;7.94;48.82;98951.62;107845;1291;22439;-89
2022/04/17 08:55:21;;;;;;;7.30;6.60;;;;;;;8.11;49.14;98952.35;107830;1291;22482;-85
2022/04/17 08:57:49;;;;;;;6.50;5.60;;;;;;;8.35;48.61;98947.27;107839;1292;22371;-88
2022/04/17 09:00:17;;;;;;;5.10;3.70;;;;;;;8.53;48.55;98946.98;107835;1292;23651;-88
2022/04/17 09:02:47;;;;;;;5.90;5.30;;;;;;;8.69;48.24;98946.27;107848;1291;22244;-87
2022/04/17 09:05:18;;;;;;;3.90;3.50;;;;;;;8.85;48.02;98942.52;107856;1291;22369;-84
2022/04/17 09:07:49;;;;;;;7.30;5.70;;;;;;;8.81;44.08;98939.61;107863;1291;23149;-88
2022/04/17 09:10:29;;;;;;;6.40;5.80;;;;;;;8.79;47.01;98936.33;107866;1291;22335;-89
2022/04/17 09:13:02;;;;;;;5.90;4.70;;;;;;;9.00;47.18;98935.98;107849;1291;22338;-87
2022/04/17 09:15:34;;;;;;;4.30;3.90;;;;;;;9.17;46.30;98934.70;107854;1291;22909;-89
2022/04/17 09:18:07;;;;;;;6.20;5.30;;;;;;;9.30;46.75;98935.92;107855;1291;22254;-86
2022/04/17 09:20:48;;;;;;;4.90;4.40;;;;;;;9.42;45.86;98923.75;107576;1292;23149;-87
2022/04/17 09:23:35;;;;;;;5.00;4.50;;;;;;;9.46;45.90;98924.57;107566;1293;22403;-86
2022/04/17 09:26:07;;;;;;;5.80;5.20;;;;;;;9.49;46.68;98916.50;107861;1291;22323;-86
2022/04/17 09:28:37;;;;;;;6.00;4.30;;;;;;;9.54;45.88;98916.57;107860;1291;22507;-87
2022/04/17 09:31:10;;;;;;;5.60;4.80;;;;;;;9.57;46.64;98916.09;107812;1291;22871;-86
2022/04/17 09:33:40;;;;;;;5.10;4.00;;;;;;;9.71;46.69;98920.73;107825;1291;22567;-89
2022/04/17 09:36:08;;;;;;;5.30;4.70;;;;;;;9.77;45.96;98914.39;107852;1291;22957;-88
2022/04/17 09:38:42;;;;;;;7.20;4.30;;;;;;;9.68;45.96;98911.42;107848;1291;22955;-87
2022/04/17 09:41:13;;;;;;;5.40;3.80;;;;;;;9.74;45.60;98907.11;107860;1291;22404;-88
2022/04/17 09:43:43;;;;;;;7.40;4.10;;;;;;;9.74;44.29;98905.72;107858;1291;22436;-88
2022/04/17 09:46:14;;;;;;;5.30;3.60;;;;;;;9.63;44.75;98901.72;107859;1290;23209;-88
2022/04/17 09:48:43;;;;;;;4.50;4.00;;;;;;;9.48;43.39;98907.23;107842;1291;22320;-89
2022/04/17 09:51:25;;;;;;;4.60;3.90;;;;;;;9.10;42.57;98903.81;107836;1291;22594;-82
2022/04/17 09:54:03;;;;;;;8.50;7.40;;;;;;;8.63;42.75;98902.66;107688;1291;22457;-87
2022/04/17 09:56:38;;;;;;;5.30;4.40;;;;;;;8.42;43.94;98899.48;107838;1291;22317;-88
2022/04/17 09:59:17;;;;;;;4.80;4.00;;;;;;;8.33;43.04;98895.80;107901;1291;22983;-88
2022/04/17 10:01:51;;;;;;;4.90;4.40;;;;;;;8.15;41.91;98895.24;107945;1291;23150;-91
2022/04/17 10:04:20;;;;;;;5.60;4.50;;;;;;;7.82;41.45;98898.39;107828;1291;22360;-89
2022/04/17 10:06:50;;;;;;;5.10;4.20;;;;;;;7.77;42.14;98892.08;107887;1291;23323;-89
2022/04/17 10:09:20;;;;;;;4.90;4.20;;;;;;;7.79;42.84;98886.50;107817;1291;22478;-89
2022/04/17 10:11:49;;;;;;;7.20;5.20;;;;;;;7.92;43.56;98885.64;107889;1291;23020;-90
2022/04/17 10:14:18;;;;;;;4.60;4.10;;;;;;;7.98;41.08;98886.02;107844;1291;22395;-86
2022/04/17 10:16:48;;;;;;;6.70;4.40;;;;;;;8.02;42.06;98883.84;107872;1291;22985;-91
2022/04/17 10:19:24;;;;;;;4.00;3.60;;;;;;;8.15;43.12;98877.90;107907;1290;23045;-91
2022/04/17 10:21:53;;;;;;;4.70;3.90;;;;;;;8.30;41.26;98876.67;107878;1291;22378;-90
2022/04/17 10:24:21;;;;;;;10.80;9.80;;;;;;;8.44;43.19;98871.08;107940;1291;23114;-92
2022/04/17 10:26:52;;;;;;;5.90;5.30;;;;;;;8.62;42.87;98874.98;107918;1291;23171;-91
2022/04/17 10:29:27;;;;;;;5.90;5.10;;;;;;;8.63;42.85;98874.56;107902;1291;23018;-87
2022/04/17 10:32:03;;;;;;;;;;;;;;;8.59;42.78;98875.35;107912;1291;22487;-94
2022/04/17 10:35:04;;;;;;;5.80;4.90;;;;;;;8.43;41.71;98870.00;107869;1291;22390;-87
2022/04/17 10:37:51;;;;;;;6.30;4.80;;;;;;;8.24;43.23;98871.80;107898;1291;22141;-92
2022/04/17 10:40:20;;;;;;;5.70;4.20;;;;;;;8.16;42.13;98869.11;107911;1291;22971;-90
2022/04/17 10:42:56;;;;;;;5.80;5.00;;;;;;;8.07;42.84;98869.27;107936;1291;22366;-90
2022/04/17 10:45:25;;;;;;;6.90;5.30;;;;;;;8.14;43.78;98866.33;107961;1291;23000;-92
2022/04/17 10:48:12;;;;;;;4.70;3.90;;;;;;;8.26;43.87;98868.42;108111;1290;22298;-92
2022/04/17 10:50:58;;;;;;;5.50;4.90;;;;;;;8.34;43.34;98865.57;107949;1291;22455;-92
2022/04/17 10:53:28;;;;;;;6.30;5.70;;;;;;;8.28;42.57;98861.14;107977;1291;22524;-92
2022/04/17 10:56:07;;;;;;;6.90;6.20;;;;;;;8.24;43.59;98855.52;107981;1290;23194;-88
2022/04/17 10:58:37;;;;;;;5.10;4.40;;;;;;;8.34;43.32;98855.15;108071;1291;22556;-91
2022/04/17 11:01:05;;;;;;;5.30;4.20;;;;;;;8.41;43.13;98843.51;108044;1291;22324;-89
2022/04/17 11:03:34;;;;;;;6.00;5.00;;;;;;;8.58;42.55;98843.91;107898;1290;22448;-88
2022/04/17 11:06:31;;;;;;;5.40;4.40;;;;;;;8.78;41.79;98839.58;107936;1291;22315;-90
2022/04/17 11:09:09;;;;;;;6.60;4.60;;;;;;;8.94;41.36;98836.02;108028;1291;22484;-93
2022/04/17 11:11:39;;;;;;;5.80;4.60;;;;;;;9.12;40.47;98832.52;107976;1291;22324;-87
2022/04/17 11:14:18;;;;;;;5.80;4.60;;;;;;;9.28;42.04;98825.02;107698;1291;22343;-93
2022/04/17 11:16:51;;;;;;;5.90;4.80;;;;;;;9.43;42.22;98821.64;107972;1291;22366;-92
2022/04/17 11:19:21;;;;;;;6.00;4.60;;;;;;;9.56;42.35;98820.14;107838;1291;22363;-91
2022/04/17 11:21:52;;;;;;;6.80;5.90;;;;;;;9.60;41.81;98816.20;107888;1291;22265;-90
2022/04/17 11:24:22;;;;;;;5.50;4.50;;;;;;;9.53;41.46;98816.42;107839;1291;22258;-88
2022/04/17 11:26:52;;;;;;;6.20;4.60;;;;;;;9.26;39.84;98820.10;107873;1291;23100;-92
2022/04/17 11:29:50;;;;;;;5.90;4.60;;;;;;;8.96;40.32;98825.13;107792;1291;22401;-89
2022/04/17 11:32:17;;;;;;;6.10;4.90;;;;;;;8.56;41.11;98822.94;108011;1290;22365;-87
2022/04/17 11:34:56;;;;;;;6.40;5.10;;;;;;;8.48;41.81;98819.11;107959;1291;22509;-92
2022/04/17 11:37:26;;;;;;;6.00;4.30;;;;;;;8.54;42.25;98816.60;107887;1290;22260;-87
2022/04/17 11:40:00;;;;;;;5.10;4.50;;;;;;;8.61;42.45;98808.95;107874;1291;22971;-88
2022/04/17 11:42:29;;;;;;;6.80;4.90;;;;;;;8.70;42.66;98802.59;108196;1291;22454;-82
2022/04/17 11:45:00;;;;;;;6.50;4.70;;;;;;;8.78;42.22;98802.11;108157;1291;22529;-84
2022/04/17 11:47:37;;;;;;;5.70;4.60;;;;;;;8.87;42.55;98799.41;108199;1291;22510;-86
2022/04/17 11:50:09;;;;;;;6.40;4.70;;;;;;;9.01;42.82;98791.30;108286;1291;22312;-82